createdAt,value
2019-02-05T00:01:56.665Z,-3.70
2019-02-05T00:04:26.579Z,-3.60
2019-02-05T00:06:56.377Z,-3.60
2019-02-05T00:09:26.216Z,-3.50
2019-02-05T00:11:56.324Z,-3.70
2019-02-05T00:14:26.596Z,-3.60
2019-02-05T00:16:56.220Z,-3.50
2019-02-05T00:19:26.156Z,-3.60
2019-02-05T00:21:55.840Z,-3.70
2019-02-05T00:24:25.935Z,-3.70
2019-02-05T00:26:55.599Z,-3.70
2019-02-05T00:29:25.721Z,-3.70
2019-02-05T00:31:55.500Z,-3.80
2019-02-05T00:34:25.149Z,-3.70
2019-02-05T00:36:54.865Z,-3.70
2019-02-05T00:39:24.941Z,-3.60
2019-02-05T00:41:55.352Z,-3.60
2019-02-05T00:44:25.008Z,-3.50
2019-02-05T00:46:54.713Z,-3.40
2019-02-05T00:49:24.372Z,-3.30
2019-02-05T00:51:54.136Z,-3.40
2019-02-05T00:54:24.011Z,-3.70
2019-02-05T00:56:54.142Z,-3.50
2019-02-05T00:59:23.993Z,-3.60
2019-02-05T01:01:54.836Z,-3.70
2019-02-05T01:04:25.867Z,-3.70
2019-02-05T01:06:55.675Z,-3.70
2019-02-05T01:09:26.678Z,-3.60
2019-02-05T01:12:01.276Z,-3.50
2019-02-05T01:14:32.951Z,-3.40
2019-02-05T01:17:03.044Z,-3.50
2019-02-05T01:19:33.076Z,-3.60
2019-02-05T01:22:02.730Z,-3.60
2019-02-05T01:24:32.759Z,-3.50
2019-02-05T01:27:02.551Z,-3.30
2019-02-05T01:29:32.234Z,-3.30
2019-02-05T01:32:02.093Z,-3.30
2019-02-05T01:34:31.989Z,-3.40
2019-02-05T01:37:03.706Z,-3.60
2019-02-05T01:39:34.384Z,-3.50
2019-02-05T01:42:04.244Z,-3.40
2019-02-05T01:44:34.300Z,-3.50
2019-02-05T01:47:04.406Z,-3.40
2019-02-05T01:49:35.881Z,-3.50
2019-02-05T01:52:07.206Z,-3.40
2019-02-05T01:54:37.269Z,-3.40
2019-02-05T01:57:07.920Z,-3.30
2019-02-05T01:59:40.795Z,-3.40
2019-02-05T02:02:10.653Z,-3.30
2019-02-05T02:04:40.453Z,-3.10
2019-02-05T02:07:10.657Z,-3.10
2019-02-05T02:09:40.592Z,-3.20
2019-02-05T02:12:10.271Z,-3.10
2019-02-05T02:14:40.044Z,-3.10
2019-02-05T04:21:43.853Z,-3.10
2019-02-05T04:24:47.004Z,-3.20
2019-02-05T04:27:58.656Z,-3.10
2019-02-05T04:30:39.609Z,-3.10
2019-02-05T04:34:05.194Z,-3.00
2019-02-05T04:37:14.674Z,-2.90
2019-02-05T04:40:02.721Z,-2.80
2019-02-05T04:43:19.619Z,-2.90
2019-02-05T04:46:01.026Z,-2.90
2019-02-05T04:49:21.149Z,-2.90
2019-02-05T04:52:44.041Z,-3.00
2019-02-05T04:55:55.687Z,-3.20
2019-02-05T04:58:57.303Z,-3.20
2019-02-05T05:02:08.187Z,-3.10
2019-02-05T05:04:50.908Z,-3.00
2019-02-05T05:07:29.947Z,-2.90
2019-02-05T05:10:02.652Z,-3.00
2019-02-05T05:12:32.854Z,-3.00
2019-02-05T05:15:02.496Z,-3.10
2019-02-05T05:17:32.260Z,-3.10
2019-02-05T05:20:02.045Z,-3.00
2019-02-05T05:22:31.845Z,-3.10
2019-02-05T05:25:01.669Z,-3.00
2019-02-05T05:27:31.591Z,-2.80
2019-02-05T05:30:01.386Z,-2.80
2019-02-05T05:32:31.166Z,-2.70
2019-02-05T05:35:00.773Z,-2.60
2019-02-05T05:37:30.431Z,-2.50
2019-02-05T05:40:00.384Z,-2.60
2019-02-05T05:42:30.478Z,-2.60
2019-02-05T05:45:00.284Z,-2.60
2019-02-05T05:47:30.070Z,-2.60
2019-02-05T05:49:59.958Z,-2.80
2019-02-05T05:52:29.809Z,-2.90
2019-02-05T05:54:59.559Z,-2.80
2019-02-05T05:57:29.428Z,-2.80
2019-02-05T05:59:59.245Z,-2.80
2019-02-05T06:02:28.953Z,-2.80
2019-02-05T06:04:58.733Z,-2.80
2019-02-05T06:07:28.413Z,-2.70
2019-02-05T06:09:58.251Z,-2.80
2019-02-05T06:12:28.541Z,-2.70
2019-02-05T06:14:58.326Z,-2.80
2019-02-05T06:17:28.091Z,-2.80
2019-02-05T06:19:57.778Z,-2.70
2019-02-05T06:22:27.411Z,-2.60
2019-02-05T06:24:57.067Z,-2.60
2019-02-05T06:27:26.962Z,-2.60
2019-02-05T06:29:56.749Z,-2.50
2019-02-05T06:32:26.491Z,-2.60
2019-02-05T06:34:56.262Z,-2.60
2019-02-05T06:37:26.007Z,-2.50
2019-02-05T06:39:55.715Z,-2.50
2019-02-05T06:42:25.447Z,-2.60
2019-02-05T06:44:55.218Z,-2.50
2019-02-05T06:47:24.933Z,-2.40
2019-02-05T06:49:54.568Z,-2.30
2019-02-05T06:52:24.214Z,-2.20
2019-02-05T06:54:53.978Z,-2.30
2019-02-05T06:57:23.675Z,-2.40
2019-02-05T06:59:53.710Z,-2.30
2019-02-05T07:02:23.508Z,-2.20
2019-02-05T07:04:53.121Z,-2.30
2019-02-05T07:07:22.908Z,-2.20
2019-02-05T07:09:52.683Z,-2.20
2019-02-05T07:12:22.381Z,-2.30
2019-02-05T07:14:52.374Z,-2.20
2019-02-05T07:17:22.007Z,-2.00
2019-02-05T07:19:51.650Z,-1.90
2019-02-05T07:22:21.569Z,-1.90
2019-02-05T07:24:51.249Z,-1.90
2019-02-05T07:27:20.979Z,-1.90
2019-02-05T07:29:51.181Z,-2.00
2019-02-05T07:32:20.890Z,-1.90
2019-02-05T07:34:50.768Z,-1.80
2019-02-05T07:37:20.552Z,-1.80
2019-02-05T07:39:50.398Z,-1.60
2019-02-05T07:42:20.326Z,-1.60
2019-02-05T07:44:50.142Z,-1.50
2019-02-05T07:47:23.330Z,-1.50
2019-02-05T07:49:51.689Z,-1.40
2019-02-05T07:52:21.308Z,-1.50
2019-02-05T07:54:50.974Z,-1.60
2019-02-05T07:57:20.776Z,-1.40
2019-02-05T07:59:50.853Z,-1.50
2019-02-05T08:02:20.935Z,-1.30
2019-02-05T08:04:50.660Z,-1.10
2019-02-05T08:07:20.469Z,-1.10
2019-02-05T08:09:50.204Z,-1.10
2019-02-05T08:12:19.942Z,-1.40
2019-02-05T08:14:49.729Z,-1.30
2019-02-05T08:17:19.416Z,-1.30
2019-02-05T08:19:49.172Z,-1.40
2019-02-05T08:22:19.046Z,-1.30
2019-02-05T08:24:48.737Z,-1.20
2019-02-05T08:27:18.495Z,-1.10
2019-02-05T08:29:48.114Z,-1.00
2019-02-05T08:32:17.829Z,-1.10
2019-02-05T08:34:47.514Z,-0.90
2019-02-05T08:37:17.613Z,-1.00
2019-02-05T08:39:47.328Z,-0.80
2019-02-05T08:42:17.061Z,-0.80
2019-02-05T08:44:46.835Z,-0.90
2019-02-05T08:47:16.432Z,-0.70
2019-02-05T08:49:46.121Z,-0.90
2019-02-05T08:52:15.935Z,-0.90
2019-02-05T08:54:45.645Z,-0.60
2019-02-05T08:57:15.227Z,-0.60
2019-02-05T08:59:44.973Z,-0.70
2019-02-05T09:02:14.671Z,-0.70
2019-02-05T09:04:44.364Z,-0.60
2019-02-05T09:07:14.234Z,-0.70
2019-02-05T09:09:44.202Z,-0.60
2019-02-05T09:12:13.884Z,-0.60
2019-02-05T09:14:43.604Z,-0.50
2019-02-05T09:17:13.378Z,-0.50
2019-02-05T09:19:43.226Z,-0.40
2019-02-05T09:22:12.903Z,-0.40
2019-02-05T09:24:42.784Z,-0.40
2019-02-05T09:27:12.463Z,-0.30
2019-02-05T09:29:42.280Z,-0.20
2019-02-05T09:32:12.100Z,-0.50
2019-02-05T09:34:41.717Z,-0.40
2019-02-05T09:37:11.380Z,-0.50
2019-02-05T09:39:41.254Z,-0.30
2019-02-05T09:42:11.272Z,-0.20
2019-02-05T09:44:41.035Z,0.00
2019-02-05T09:47:10.779Z,-0.10
2019-02-05T09:49:40.533Z,-0.20
2019-02-05T09:52:10.261Z,-0.10
2019-02-05T09:54:39.932Z,-0.20
2019-02-05T09:57:10.102Z,-0.20
2019-02-05T09:59:45.425Z,-0.30
2019-02-05T10:02:11.157Z,-0.10
2019-02-05T10:04:41.000Z,-0.10
2019-02-05T10:07:10.714Z,-0.10
2019-02-05T10:09:40.364Z,-0.20
2019-02-05T10:12:10.373Z,-0.10
2019-02-05T10:14:40.035Z,-0.20
2019-02-05T10:17:09.742Z,0.00
2019-02-05T10:19:39.561Z,-0.10
2019-02-05T10:22:09.337Z,0.10
2019-02-05T10:24:39.141Z,0.10
2019-02-05T10:27:08.907Z,0.10
2019-02-05T10:29:38.882Z,0.20
2019-02-05T10:32:08.637Z,0.20
2019-02-05T10:34:39.548Z,0.30
2019-02-05T10:37:09.482Z,0.30
2019-02-05T10:39:39.274Z,0.10
2019-02-05T10:42:09.104Z,0.10
2019-02-05T10:44:39.007Z,-0.20
2019-02-05T10:47:08.786Z,0.00
2019-02-05T10:49:38.575Z,-0.20
2019-02-05T10:52:08.425Z,-0.10
2019-02-05T10:54:38.223Z,0.00
2019-02-05T10:57:08.104Z,-0.10
2019-02-05T10:59:38.219Z,-0.50
2019-02-05T11:02:08.200Z,-0.40
2019-02-05T11:04:37.998Z,-0.40
2019-02-05T11:07:07.719Z,-0.30
2019-02-05T11:09:37.379Z,-0.10
2019-02-05T11:12:07.077Z,-0.20
2019-02-05T11:14:36.803Z,0.20
2019-02-05T11:17:06.647Z,-0.10
2019-02-05T11:19:36.483Z,0.00
2019-02-05T11:22:06.134Z,0.20
2019-02-05T11:24:35.753Z,-0.20
2019-02-05T11:27:05.856Z,0.30
2019-02-05T11:29:35.689Z,0.30
2019-02-05T11:32:05.919Z,0.40
2019-02-05T11:34:35.570Z,0.20
2019-02-05T11:37:05.877Z,0.30
2019-02-05T11:39:35.827Z,0.30
2019-02-05T11:42:06.115Z,0.20
2019-02-05T11:44:36.040Z,0.40
2019-02-05T11:47:06.568Z,0.70
2019-02-05T11:49:39.126Z,0.80
2019-02-05T11:52:09.885Z,0.70
2019-02-05T11:54:39.941Z,0.30
2019-02-05T11:57:10.056Z,0.50
2019-02-05T11:59:39.790Z,0.70
2019-02-05T12:02:10.626Z,0.90
2019-02-05T12:04:40.767Z,0.80
2019-02-05T12:07:10.500Z,1.10
2019-02-05T12:09:40.733Z,1.00
2019-02-05T12:12:10.534Z,1.10
2019-02-05T12:14:40.361Z,1.30
2019-02-05T12:17:10.199Z,1.30
2019-02-05T12:19:39.909Z,1.10
2019-02-05T12:22:09.733Z,0.80
2019-02-05T12:24:39.540Z,1.00
2019-02-05T12:27:09.326Z,1.00
2019-02-05T12:29:39.138Z,1.00
2019-02-05T12:32:08.883Z,0.80
2019-02-05T12:34:39.022Z,0.90
2019-02-05T12:37:08.808Z,1.20
2019-02-05T12:39:38.546Z,1.20
2019-02-05T12:42:08.272Z,1.20
2019-02-05T12:44:38.070Z,1.20
2019-02-05T12:47:07.822Z,1.10
2019-02-05T12:49:37.507Z,1.20
2019-02-05T12:52:07.393Z,1.20
2019-02-05T12:54:37.128Z,1.10
2019-02-05T12:57:06.851Z,0.60
2019-02-05T12:59:36.608Z,0.70
2019-02-05T13:02:06.304Z,0.40
2019-02-05T13:04:36.472Z,0.30
2019-02-05T13:07:06.103Z,0.40
2019-02-05T13:09:35.778Z,0.70
2019-02-05T13:12:06.325Z,0.60
2019-02-05T13:14:36.149Z,0.60
2019-02-05T13:17:06.155Z,0.50
2019-02-05T13:19:35.783Z,0.50
2019-02-05T13:22:05.512Z,0.30
2019-02-05T13:24:35.291Z,0.20
2019-02-05T13:27:05.400Z,0.60
2019-02-05T13:29:35.043Z,0.80
2019-02-05T13:32:05.375Z,0.60
2019-02-05T13:34:35.172Z,0.90
2019-02-05T13:37:04.996Z,0.70
2019-02-05T13:39:34.674Z,0.90
2019-02-05T13:42:04.618Z,1.00
2019-02-05T13:44:34.426Z,1.00
2019-02-05T13:47:04.531Z,1.20
2019-02-05T13:49:34.257Z,1.10
2019-02-05T13:52:03.963Z,1.20
2019-02-05T13:54:33.625Z,1.40
2019-02-05T13:57:03.446Z,1.50
2019-02-05T13:59:33.247Z,1.50
2019-02-05T14:02:03.194Z,1.50
2019-02-05T14:04:32.870Z,1.50
2019-02-05T14:07:02.708Z,1.20
2019-02-05T14:09:32.364Z,0.90
2019-02-05T14:12:02.015Z,0.70
2019-02-05T14:14:31.643Z,0.60
2019-02-05T14:17:01.447Z,0.70
2019-02-05T14:19:31.056Z,0.60
2019-02-05T14:22:00.789Z,0.60
2019-02-05T14:24:31.495Z,0.60
2019-02-05T14:27:01.091Z,0.40
2019-02-05T14:29:30.895Z,0.40
2019-02-05T14:32:00.725Z,0.40
2019-02-05T14:34:30.399Z,0.50
2019-02-05T14:37:00.155Z,0.40
2019-02-05T14:39:29.943Z,0.40
2019-02-05T14:41:59.681Z,0.00
2019-02-05T14:44:29.336Z,-0.20
2019-02-05T14:46:59.042Z,-0.30
2019-02-05T14:49:28.768Z,-0.10
2019-02-05T14:51:58.408Z,-0.20
2019-02-05T14:54:28.048Z,-0.20
2019-02-05T14:56:57.646Z,-0.20
2019-02-05T14:59:27.702Z,-0.40
2019-02-05T15:01:57.365Z,-0.20
2019-02-05T15:04:27.130Z,-0.60
2019-02-05T15:06:56.861Z,-0.60
2019-02-05T15:09:26.636Z,-0.50
2019-02-05T15:11:56.280Z,-0.40
2019-02-05T15:14:26.823Z,-0.40
2019-02-05T15:16:56.660Z,-0.30
2019-02-05T15:19:26.286Z,-0.50
2019-02-05T15:21:55.999Z,-0.50
2019-02-05T15:24:36.834Z,-0.60
2019-02-05T15:26:57.036Z,-0.70
2019-02-05T15:29:26.767Z,-0.90
2019-02-05T15:31:56.524Z,-0.80
2019-02-05T15:34:28.634Z,-0.90
2019-02-05T15:36:58.413Z,-1.00
2019-02-05T15:39:28.153Z,-0.90
2019-02-05T15:41:58.353Z,-1.00
2019-02-05T15:44:28.166Z,-1.00
2019-02-05T15:46:57.922Z,-1.20
2019-02-05T15:49:27.644Z,-1.30
2019-02-05T15:51:57.321Z,-1.30
2019-02-05T15:54:27.118Z,-1.30
2019-02-05T15:56:56.743Z,-1.30
2019-02-05T15:59:26.503Z,-1.20
2019-02-05T16:02:05.859Z,-1.40
2019-02-05T16:04:27.427Z,-1.40
2019-02-05T16:06:57.134Z,-1.30
2019-02-05T16:09:26.865Z,-1.30
2019-02-05T16:11:56.559Z,-1.60
2019-02-05T16:14:26.175Z,-1.50
2019-02-05T16:16:56.021Z,-1.50
2019-02-05T16:19:25.720Z,-1.50
2019-02-05T16:21:55.467Z,-1.60
2019-02-05T16:24:25.565Z,-1.70
2019-02-05T16:26:55.254Z,-1.80
2019-02-05T16:29:24.894Z,-1.80
2019-02-05T16:31:54.522Z,-1.80
2019-02-05T16:34:24.220Z,-1.80
2019-02-05T16:36:53.929Z,-1.70
2019-02-05T16:39:23.653Z,-1.80
2019-02-05T16:41:53.398Z,-1.90
2019-02-05T16:44:23.061Z,-2.20
2019-02-05T16:46:52.709Z,-2.20
2019-02-05T16:49:22.697Z,-2.40
2019-02-05T16:51:52.513Z,-2.40
2019-02-05T16:54:22.720Z,-2.40
2019-02-05T16:56:52.347Z,-2.30
2019-02-05T16:59:22.125Z,-2.30
2019-02-05T17:01:51.793Z,-2.20
2019-02-05T17:04:21.534Z,-2.30
2019-02-05T17:06:51.302Z,-2.30
2019-02-05T17:09:21.346Z,-2.30
2019-02-05T17:11:50.984Z,-2.50
2019-02-05T17:14:20.654Z,-2.30
2019-02-05T17:16:50.506Z,-2.30
2019-02-05T17:19:20.236Z,-2.30
2019-02-05T17:21:49.982Z,-2.30
2019-02-05T17:24:19.720Z,-2.20
2019-02-05T17:26:49.319Z,-2.50
2019-02-05T17:29:18.965Z,-2.50
2019-02-05T17:31:48.729Z,-2.40
2019-02-05T17:34:18.519Z,-2.50
2019-02-05T17:36:48.153Z,-2.70
2019-02-05T17:39:17.899Z,-2.70
2019-02-05T17:41:48.025Z,-2.70
2019-02-05T17:44:17.792Z,-2.80
2019-02-05T17:46:47.786Z,-2.80
2019-02-05T17:49:17.417Z,-2.70
2019-02-05T17:51:47.091Z,-2.70
2019-02-05T17:54:16.973Z,-2.90
2019-02-05T17:56:46.590Z,-2.80
2019-02-05T17:59:16.328Z,-2.60
2019-02-05T18:01:46.046Z,-2.50
2019-02-05T18:04:15.824Z,-2.40
2019-02-05T18:06:45.934Z,-2.50
2019-02-05T18:09:15.593Z,-2.60
2019-02-05T18:11:45.336Z,-2.50
2019-02-05T18:14:15.148Z,-2.40
2019-02-05T18:16:45.520Z,-2.50
2019-02-05T18:19:15.155Z,-2.40
2019-02-05T18:21:45.197Z,-2.40
2019-02-05T18:24:14.915Z,-2.50
2019-02-05T18:26:44.694Z,-2.40
2019-02-05T18:29:14.466Z,-2.30
2019-02-05T18:31:44.176Z,-2.30
2019-02-05T18:34:14.915Z,-2.40
2019-02-05T18:36:44.834Z,-2.50
2019-02-05T18:39:14.690Z,-2.60
2019-02-05T18:41:44.360Z,-2.80
2019-02-05T18:44:14.003Z,-2.60
2019-02-05T18:46:43.651Z,-2.60
2019-02-05T18:49:13.315Z,-2.50
2019-02-05T18:51:42.974Z,-2.40
2019-02-05T18:54:12.730Z,-2.30
2019-02-05T18:56:42.528Z,-2.30
2019-02-05T18:59:12.266Z,-2.30
2019-02-05T19:01:42.050Z,-2.30
2019-02-05T19:04:11.754Z,-2.30
2019-02-05T19:06:41.578Z,-2.30
2019-02-05T19:09:13.976Z,-2.30
2019-02-05T19:11:45.220Z,-2.40
2019-02-05T19:14:15.051Z,-2.70
2019-02-05T19:16:44.831Z,-2.90
2019-02-05T19:19:17.213Z,-2.90
2019-02-05T19:21:46.973Z,-3.10
2019-02-05T19:24:34.667Z,-2.90
2019-02-05T19:27:04.487Z,-2.80
2019-02-05T19:29:34.610Z,-2.70
2019-02-05T19:32:04.412Z,-2.80
2019-02-05T19:34:34.200Z,-2.80
2019-02-05T19:37:04.111Z,-2.80
2019-02-05T19:39:33.904Z,-2.90
2019-02-05T19:42:03.614Z,-2.90
2019-02-05T19:44:34.223Z,-2.80
2019-02-05T19:47:06.890Z,-2.70
2019-02-05T19:49:38.399Z,-2.90
2019-02-05T19:52:08.286Z,-2.90
2019-02-05T19:54:38.105Z,-2.90
2019-02-05T19:57:07.978Z,-2.70
2019-02-05T19:59:38.015Z,-2.60
2019-02-05T20:02:08.847Z,-2.60
2019-02-05T20:04:38.496Z,-2.50
2019-02-05T20:07:08.132Z,-2.60
2019-02-05T20:09:37.784Z,-2.80
2019-02-05T20:12:07.447Z,-3.00
2019-02-05T20:14:37.026Z,-3.10
2019-02-05T20:17:07.093Z,-2.90
2019-02-05T20:19:36.841Z,-2.90
2019-02-05T20:22:06.547Z,-3.00
2019-02-05T20:24:36.372Z,-3.00
2019-02-05T20:27:08.695Z,-3.30
2019-02-05T20:29:40.047Z,-3.10
2019-02-05T20:32:11.292Z,-3.10
2019-02-05T20:34:41.287Z,-3.10
2019-02-05T20:37:11.143Z,-3.10
2019-02-05T20:39:40.818Z,-2.90
2019-02-05T20:42:10.444Z,-2.70
2019-02-05T20:44:40.236Z,-2.80
2019-02-05T20:47:10.479Z,-2.90
2019-02-05T20:49:40.307Z,-2.90
2019-02-05T20:52:10.065Z,-2.90
2019-02-05T20:54:39.835Z,-2.90
2019-02-05T20:57:09.531Z,-3.10
2019-02-05T20:59:39.294Z,-3.20
2019-02-05T21:02:09.837Z,-3.30
2019-02-05T21:04:47.867Z,-3.20
2019-02-05T21:07:10.972Z,-3.30
2019-02-05T21:09:42.204Z,-3.10
2019-02-05T21:12:12.204Z,-3.10
2019-02-05T21:14:42.284Z,-3.20
2019-02-05T21:17:12.851Z,-3.40
2019-02-05T21:19:42.709Z,-3.40
2019-02-05T21:22:12.755Z,-3.20
2019-02-05T21:24:42.546Z,-3.30
2019-02-05T21:27:12.344Z,-3.30
2019-02-05T21:29:42.542Z,-3.40
2019-02-05T21:32:12.889Z,-3.30
2019-02-05T21:34:42.637Z,-3.30
2019-02-05T21:37:12.517Z,-3.30
2019-02-05T21:39:42.263Z,-3.10
2019-02-05T21:42:12.063Z,-3.20
2019-02-05T21:44:41.712Z,-3.40
2019-02-05T21:47:11.610Z,-3.40
2019-02-05T21:49:41.394Z,-3.40
2019-02-05T21:52:11.103Z,-3.20
2019-02-05T21:54:40.709Z,-3.40
2019-02-05T21:57:10.467Z,-3.70
2019-02-05T21:59:40.144Z,-3.70
2019-02-05T22:02:09.882Z,-3.60
2019-02-05T22:04:39.880Z,-3.70
2019-02-05T22:07:09.884Z,-3.80
2019-02-05T22:09:39.448Z,-3.80
2019-02-05T22:12:09.409Z,-3.60
2019-02-05T22:14:39.254Z,-3.60
2019-02-05T22:17:09.510Z,-3.50
2019-02-05T22:19:39.291Z,-3.40
2019-02-05T22:22:09.182Z,-3.30
2019-02-05T22:24:39.072Z,-3.30
2019-02-05T22:27:09.286Z,-3.30
2019-02-05T22:29:39.167Z,-3.70
2019-02-05T22:32:08.919Z,-3.60
2019-02-05T22:34:39.651Z,-3.40
2019-02-05T22:37:09.539Z,-3.40
2019-02-05T22:39:39.524Z,-3.60
2019-02-05T22:42:09.276Z,-3.50
2019-02-05T22:44:39.234Z,-3.40
2019-02-05T22:47:08.955Z,-3.40
2019-02-05T22:49:38.560Z,-3.30
2019-02-05T22:52:08.319Z,-3.60
2019-02-05T22:54:38.274Z,-3.60
2019-02-05T22:57:08.078Z,-3.70
2019-02-05T22:59:37.986Z,-3.50
2019-02-05T23:02:07.820Z,-3.50
2019-02-05T23:04:57.238Z,-3.60
2019-02-05T23:07:28.896Z,-3.60
2019-02-05T23:10:23.515Z,-3.70
2019-02-05T23:13:00.330Z,-3.90
2019-02-05T23:15:30.623Z,-3.70
2019-02-05T23:18:00.914Z,-3.70
2019-02-05T23:20:33.872Z,-3.60
2019-02-05T23:23:06.413Z,-3.50
2019-02-05T23:25:36.111Z,-3.40
2019-02-05T23:28:06.591Z,-3.30
2019-02-05T23:30:36.381Z,-3.40
2019-02-05T23:33:06.098Z,-3.50
2019-02-05T23:35:35.854Z,-3.40
2019-02-05T23:38:06.417Z,-3.30
2019-02-05T23:40:36.230Z,-3.30
2019-02-05T23:43:06.108Z,-3.30
2019-02-05T23:45:35.897Z,-3.40
2019-02-05T23:48:06.303Z,-3.40
2019-02-05T23:50:36.032Z,-3.50
2019-02-05T23:53:05.908Z,-3.60
2019-02-05T23:55:35.583Z,-3.50
2019-02-05T23:58:05.655Z,-3.60
